sensor_id;sensor_type;location;lat;lon;timestamp;P1;durP1;ratioP1;P2;durP2;ratioP2
75851;SDS011;64500;52.632;20.656;2023-08-17T00:05:53;15.60;;;11.20;;
75851;SDS011;64500;52.632;20.656;2023-08-17T00:08:52;16.80;;;10.60;;
75851;SDS011;64500;52.632;20.656;2023-08-17T00:11:34;17.40;;;11.50;;
75851;SDS011;64500;52.632;20.656;2023-08-17T00:14:46;14.40;;;10.20;;
75851;SDS011;64500;52.632;20.656;2023-08-17T00:17:27;15.40;;;10.70;;
75851;SDS011;64500;52.632;20.656;2023-08-17T00:19:57;17.30;;;11.40;;
75851;SDS011;64500;52.632;20.656;2023-08-17T00:25:43;19.00;;;11.80;;
75851;SDS011;64500;52.632;20.656;2023-08-17T00:28:14;15.40;;;11.70;;
75851;SDS011;64500;52.632;20.656;2023-08-17T00:30:47;14.40;;;11.90;;
75851;SDS011;64500;52.632;20.656;2023-08-17T00:33:35;18.70;;;12.80;;
75851;SDS011;64500;52.632;20.656;2023-08-17T00:36:32;17.50;;;12.20;;
75851;SDS011;64500;52.632;20.656;2023-08-17T00:39:38;15.90;;;12.50;;
75851;SDS011;64500;52.632;20.656;2023-08-17T00:42:31;19.10;;;12.50;;
75851;SDS011;64500;52.632;20.656;2023-08-17T00:45:12;16.00;;;12.40;;
75851;SDS011;64500;52.632;20.656;2023-08-17T00:48:13;17.60;;;13.00;;
75851;SDS011;64500;52.632;20.656;2023-08-17T00:51:07;20.70;;;13.00;;
75851;SDS011;64500;52.632;20.656;2023-08-17T00:53:50;19.50;;;13.90;;
75851;SDS011;64500;52.632;20.656;2023-08-17T00:56:45;17.90;;;13.80;;
75851;SDS011;64500;52.632;20.656;2023-08-17T00:59:38;17.40;;;13.30;;
75851;SDS011;64500;52.632;20.656;2023-08-17T01:17:51;20.30;;;14.90;;
75851;SDS011;64500;52.632;20.656;2023-08-17T01:20:38;20.20;;;14.10;;
75851;SDS011;64500;52.632;20.656;2023-08-17T01:23:51;21.80;;;15.10;;
75851;SDS011;64500;52.632;20.656;2023-08-17T01:26:19;21.00;;;15.70;;
75851;SDS011;64500;52.632;20.656;2023-08-17T01:29:03;20.80;;;15.10;;
75851;SDS011;64500;52.632;20.656;2023-08-17T01:34:57;24.50;;;14.30;;
75851;SDS011;64500;52.632;20.656;2023-08-17T01:37:41;21.70;;;14.90;;
75851;SDS011;64500;52.632;20.656;2023-08-17T01:40:55;21.80;;;14.20;;
75851;SDS011;64500;52.632;20.656;2023-08-17T01:44:00;22.40;;;14.30;;
75851;SDS011;64500;52.632;20.656;2023-08-17T01:46:40;21.40;;;14.70;;
75851;SDS011;64500;52.632;20.656;2023-08-17T01:56:03;21.00;;;14.40;;
75851;SDS011;64500;52.632;20.656;2023-08-17T02:02:07;18.50;;;14.10;;
75851;SDS011;64500;52.632;20.656;2023-08-17T02:08:06;21.20;;;14.00;;
75851;SDS011;64500;52.632;20.656;2023-08-17T02:10:59;20.50;;;13.70;;
75851;SDS011;64500;52.632;20.656;2023-08-17T02:13:40;21.20;;;13.60;;
75851;SDS011;64500;52.632;20.656;2023-08-17T02:16:24;17.80;;;13.60;;
75851;SDS011;64500;52.632;20.656;2023-08-17T02:19:32;21.10;;;13.10;;
75851;SDS011;64500;52.632;20.656;2023-08-17T02:22:34;17.90;;;13.40;;
75851;SDS011;64500;52.632;20.656;2023-08-17T02:28:46;18.00;;;12.90;;
75851;SDS011;64500;52.632;20.656;2023-08-17T02:31:38;17.20;;;12.30;;
75851;SDS011;64500;52.632;20.656;2023-08-17T02:34:28;18.50;;;12.30;;
75851;SDS011;64500;52.632;20.656;2023-08-17T02:37:17;17.40;;;11.90;;
75851;SDS011;64500;52.632;20.656;2023-08-17T02:40:07;15.10;;;10.80;;
75851;SDS011;64500;52.632;20.656;2023-08-17T02:43:15;16.30;;;11.60;;
75851;SDS011;64500;52.632;20.656;2023-08-17T02:46:09;22.50;;;11.70;;
75851;SDS011;64500;52.632;20.656;2023-08-17T02:58:08;17.10;;;10.70;;
75851;SDS011;64500;52.632;20.656;2023-08-17T03:03:56;15.60;;;9.90;;
75851;SDS011;64500;52.632;20.656;2023-08-17T03:07:31;15.80;;;9.60;;
75851;SDS011;64500;52.632;20.656;2023-08-17T03:09:54;16.90;;;10.60;;
75851;SDS011;64500;52.632;20.656;2023-08-17T03:12:57;14.80;;;9.80;;
75851;SDS011;64500;52.632;20.656;2023-08-17T03:15:32;15.50;;;10.00;;
75851;SDS011;64500;52.632;20.656;2023-08-17T03:18:41;16.20;;;9.50;;
75851;SDS011;64500;52.632;20.656;2023-08-17T03:21:18;14.40;;;9.50;;
75851;SDS011;64500;52.632;20.656;2023-08-17T03:24:03;14.20;;;9.00;;
75851;SDS011;64500;52.632;20.656;2023-08-17T03:26:41;15.30;;;9.50;;
75851;SDS011;64500;52.632;20.656;2023-08-17T03:29:35;14.70;;;9.30;;
75851;SDS011;64500;52.632;20.656;2023-08-17T03:38:20;14.20;;;8.90;;
75851;SDS011;64500;52.632;20.656;2023-08-17T03:40:56;13.00;;;8.30;;
75851;SDS011;64500;52.632;20.656;2023-08-17T03:43:31;15.50;;;8.70;;
75851;SDS011;64500;52.632;20.656;2023-08-17T03:49:48;13.60;;;8.00;;
75851;SDS011;64500;52.632;20.656;2023-08-17T03:56:09;14.40;;;7.80;;
75851;SDS011;64500;52.632;20.656;2023-08-17T03:58:42;13.00;;;7.80;;
75851;SDS011;64500;52.632;20.656;2023-08-17T04:01:18;12.40;;;7.80;;
75851;SDS011;64500;52.632;20.656;2023-08-17T04:04:22;12.90;;;7.50;;
75851;SDS011;64500;52.632;20.656;2023-08-17T04:10:12;13.40;;;7.30;;
75851;SDS011;64500;52.632;20.656;2023-08-17T04:13:12;12.20;;;7.10;;
75851;SDS011;64500;52.632;20.656;2023-08-17T04:19:16;13.60;;;7.90;;
75851;SDS011;64500;52.632;20.656;2023-08-17T04:22:12;11.70;;;7.30;;
75851;SDS011;64500;52.632;20.656;2023-08-17T04:28:11;12.50;;;7.30;;
75851;SDS011;64500;52.632;20.656;2023-08-17T04:30:41;10.70;;;7.50;;
75851;SDS011;64500;52.632;20.656;2023-08-17T04:33:22;11.40;;;7.20;;
75851;SDS011;64500;52.632;20.656;2023-08-17T04:39:05;12.80;;;7.00;;
75851;SDS011;64500;52.632;20.656;2023-08-17T04:42:08;13.60;;;7.10;;
75851;SDS011;64500;52.632;20.656;2023-08-17T04:44:58;12.20;;;7.40;;
75851;SDS011;64500;52.632;20.656;2023-08-17T04:47:37;11.60;;;7.40;;
75851;SDS011;64500;52.632;20.656;2023-08-17T04:56:25;14.60;;;7.50;;
75851;SDS011;64500;52.632;20.656;2023-08-17T04:59:16;11.60;;;7.60;;
75851;SDS011;64500;52.632;20.656;2023-08-17T05:02:17;14.00;;;7.30;;
75851;SDS011;64500;52.632;20.656;2023-08-17T05:05:06;11.00;;;7.10;;
75851;SDS011;64500;52.632;20.656;2023-08-17T05:08:08;9.70;;;6.30;;
75851;SDS011;64500;52.632;20.656;2023-08-17T05:13:52;12.90;;;7.10;;
75851;SDS011;64500;52.632;20.656;2023-08-17T05:16:36;11.90;;;7.10;;
75851;SDS011;64500;52.632;20.656;2023-08-17T05:19:35;11.50;;;7.20;;
75851;SDS011;64500;52.632;20.656;2023-08-17T05:22:34;13.10;;;7.50;;
75851;SDS011;64500;52.632;20.656;2023-08-17T05:25:38;13.40;;;8.10;;
75851;SDS011;64500;52.632;20.656;2023-08-17T05:34:12;13.20;;;7.70;;
75851;SDS011;64500;52.632;20.656;2023-08-17T05:37:02;9.70;;;7.00;;
75851;SDS011;64500;52.632;20.656;2023-08-17T05:39:57;12.50;;;7.60;;
75851;SDS011;64500;52.632;20.656;2023-08-17T05:42:39;11.60;;;7.10;;
75851;SDS011;64500;52.632;20.656;2023-08-17T05:48:12;14.50;;;7.40;;
75851;SDS011;64500;52.632;20.656;2023-08-17T05:50:51;10.90;;;7.50;;
75851;SDS011;64500;52.632;20.656;2023-08-17T05:56:39;12.40;;;8.00;;
75851;SDS011;64500;52.632;20.656;2023-08-17T05:59:46;10.90;;;7.30;;
75851;SDS011;64500;52.632;20.656;2023-08-17T06:02:46;13.00;;;7.50;;
75851;SDS011;64500;52.632;20.656;2023-08-17T06:05:30;12.00;;;7.20;;
75851;SDS011;64500;52.632;20.656;2023-08-17T06:08:07;11.90;;;7.50;;
75851;SDS011;64500;52.632;20.656;2023-08-17T06:13:53;12.40;;;7.00;;
75851;SDS011;64500;52.632;20.656;2023-08-17T06:16:25;13.30;;;7.90;;
75851;SDS011;64500;52.632;20.656;2023-08-17T06:24:41;12.90;;;7.40;;
75851;SDS011;64500;52.632;20.656;2023-08-17T06:27:20;12.30;;;7.80;;
75851;SDS011;64500;52.632;20.656;2023-08-17T06:32:33;12.70;;;8.40;;
75851;SDS011;64500;52.632;20.656;2023-08-17T06:35:14;13.30;;;8.70;;
75851;SDS011;64500;52.632;20.656;2023-08-17T06:37:45;12.40;;;7.80;;
75851;SDS011;64500;52.632;20.656;2023-08-17T06:40:45;12.60;;;7.60;;
75851;SDS011;64500;52.632;20.656;2023-08-17T06:43:27;14.60;;;8.60;;
75851;SDS011;64500;52.632;20.656;2023-08-17T06:46:08;10.60;;;7.70;;
75851;SDS011;64500;52.632;20.656;2023-08-17T06:48:47;12.30;;;7.80;;
75851;SDS011;64500;52.632;20.656;2023-08-17T06:51:17;13.70;;;8.50;;
75851;SDS011;64500;52.632;20.656;2023-08-17T06:53:55;13.90;;;7.90;;
75851;SDS011;64500;52.632;20.656;2023-08-17T06:56:39;16.10;;;9.10;;
75851;SDS011;64500;52.632;20.656;2023-08-17T06:59:14;14.10;;;8.80;;
75851;SDS011;64500;52.632;20.656;2023-08-17T07:01:48;12.40;;;8.70;;
75851;SDS011;64500;52.632;20.656;2023-08-17T07:04:28;12.10;;;8.50;;
75851;SDS011;64500;52.632;20.656;2023-08-17T07:06:58;11.80;;;8.30;;
75851;SDS011;64500;52.632;20.656;2023-08-17T07:09:34;10.70;;;8.40;;
75851;SDS011;64500;52.632;20.656;2023-08-17T07:12:29;13.00;;;8.80;;
75851;SDS011;64500;52.632;20.656;2023-08-17T07:14:57;16.10;;;9.10;;
75851;SDS011;64500;52.632;20.656;2023-08-17T07:17:27;12.90;;;8.80;;
75851;SDS011;64500;52.632;20.656;2023-08-17T07:20:08;13.10;;;9.20;;
75851;SDS011;64500;52.632;20.656;2023-08-17T07:23:01;18.60;;;8.90;;
75851;SDS011;64500;52.632;20.656;2023-08-17T07:25:29;12.30;;;8.30;;
75851;SDS011;64500;52.632;20.656;2023-08-17T07:28:10;12.50;;;8.00;;
75851;SDS011;64500;52.632;20.656;2023-08-17T07:30:41;12.50;;;8.50;;
75851;SDS011;64500;52.632;20.656;2023-08-17T07:33:17;10.70;;;8.20;;
75851;SDS011;64500;52.632;20.656;2023-08-17T07:35:50;14.10;;;8.90;;
75851;SDS011;64500;52.632;20.656;2023-08-17T07:38:20;13.10;;;7.60;;
75851;SDS011;64500;52.632;20.656;2023-08-17T07:40:54;13.20;;;8.40;;
75851;SDS011;64500;52.632;20.656;2023-08-17T07:43:27;14.70;;;8.80;;
75851;SDS011;64500;52.632;20.656;2023-08-17T07:46:06;12.50;;;8.60;;
75851;SDS011;64500;52.632;20.656;2023-08-17T07:48:38;13.40;;;8.00;;
75851;SDS011;64500;52.632;20.656;2023-08-17T07:51:08;15.20;;;8.70;;
75851;SDS011;64500;52.632;20.656;2023-08-17T07:53:52;13.90;;;8.30;;
75851;SDS011;64500;52.632;20.656;2023-08-17T07:56:27;11.70;;;7.70;;
75851;SDS011;64500;52.632;20.656;2023-08-17T07:58:54;11.80;;;7.60;;
75851;SDS011;64500;52.632;20.656;2023-08-17T08:01:24;11.70;;;7.40;;
75851;SDS011;64500;52.632;20.656;2023-08-17T08:04:11;12.90;;;7.90;;
75851;SDS011;64500;52.632;20.656;2023-08-17T08:06:41;12.50;;;7.90;;
75851;SDS011;64500;52.632;20.656;2023-08-17T08:09:14;12.10;;;7.40;;
75851;SDS011;64500;52.632;20.656;2023-08-17T08:11:41;12.40;;;7.60;;
75851;SDS011;64500;52.632;20.656;2023-08-17T08:14:12;11.40;;;7.30;;
75851;SDS011;64500;52.632;20.656;2023-08-17T08:16:44;10.90;;;7.30;;
75851;SDS011;64500;52.632;20.656;2023-08-17T08:19:20;12.50;;;6.90;;
75851;SDS011;64500;52.632;20.656;2023-08-17T08:21:50;11.40;;;7.10;;
75851;SDS011;64500;52.632;20.656;2023-08-17T08:24:23;10.80;;;7.30;;
75851;SDS011;64500;52.632;20.656;2023-08-17T08:27:00;12.30;;;6.80;;
75851;SDS011;64500;52.632;20.656;2023-08-17T08:29:33;11.30;;;7.30;;
75851;SDS011;64500;52.632;20.656;2023-08-17T08:32:00;10.90;;;6.50;;
75851;SDS011;64500;52.632;20.656;2023-08-17T08:34:30;10.70;;;6.50;;
75851;SDS011;64500;52.632;20.656;2023-08-17T08:37:00;12.30;;;6.90;;
75851;SDS011;64500;52.632;20.656;2023-08-17T08:39:31;11.70;;;6.50;;
75851;SDS011;64500;52.632;20.656;2023-08-17T08:42:07;10.20;;;6.50;;
75851;SDS011;64500;52.632;20.656;2023-08-17T08:44:37;10.30;;;6.20;;
75851;SDS011;64500;52.632;20.656;2023-08-17T08:47:09;10.40;;;5.50;;
75851;SDS011;64500;52.632;20.656;2023-08-17T08:49:40;11.30;;;6.90;;
75851;SDS011;64500;52.632;20.656;2023-08-17T08:52:34;11.00;;;6.30;;
75851;SDS011;64500;52.632;20.656;2023-08-17T08:55:18;10.60;;;5.40;;
75851;SDS011;64500;52.632;20.656;2023-08-17T08:57:48;9.10;;;5.20;;
75851;SDS011;64500;52.632;20.656;2023-08-17T09:00:24;10.80;;;5.30;;
75851;SDS011;64500;52.632;20.656;2023-08-17T09:02:55;11.10;;;5.60;;
75851;SDS011;64500;52.632;20.656;2023-08-17T09:05:23;8.20;;;5.10;;
75851;SDS011;64500;52.632;20.656;2023-08-17T09:07:53;11.00;;;5.40;;
75851;SDS011;64500;52.632;20.656;2023-08-17T09:10:28;8.60;;;4.90;;
75851;SDS011;64500;52.632;20.656;2023-08-17T09:13:06;9.10;;;5.30;;
75851;SDS011;64500;52.632;20.656;2023-08-17T09:15:39;9.80;;;5.40;;
75851;SDS011;64500;52.632;20.656;2023-08-17T09:18:25;9.30;;;5.20;;
75851;SDS011;64500;52.632;20.656;2023-08-17T09:20:58;11.10;;;5.20;;
75851;SDS011;64500;52.632;20.656;2023-08-17T09:23:41;9.50;;;5.10;;
75851;SDS011;64500;52.632;20.656;2023-08-17T09:26:12;10.00;;;4.90;;
75851;SDS011;64500;52.632;20.656;2023-08-17T09:28:39;12.40;;;5.00;;
75851;SDS011;64500;52.632;20.656;2023-08-17T09:31:30;9.70;;;5.10;;
75851;SDS011;64500;52.632;20.656;2023-08-17T09:34:01;9.50;;;5.70;;
75851;SDS011;64500;52.632;20.656;2023-08-17T09:36:34;10.70;;;5.00;;
75851;SDS011;64500;52.632;20.656;2023-08-17T09:39:06;8.90;;;5.40;;
75851;SDS011;64500;52.632;20.656;2023-08-17T09:41:38;9.70;;;5.50;;
75851;SDS011;64500;52.632;20.656;2023-08-17T09:44:08;10.80;;;5.50;;
75851;SDS011;64500;52.632;20.656;2023-08-17T09:46:36;9.90;;;5.50;;
75851;SDS011;64500;52.632;20.656;2023-08-17T09:49:11;10.70;;;5.70;;
75851;SDS011;64500;52.632;20.656;2023-08-17T09:51:42;11.30;;;5.70;;
75851;SDS011;64500;52.632;20.656;2023-08-17T09:54:22;12.10;;;5.90;;
75851;SDS011;64500;52.632;20.656;2023-08-17T09:56:55;11.90;;;6.10;;
75851;SDS011;64500;52.632;20.656;2023-08-17T09:59:24;12.40;;;5.90;;
75851;SDS011;64500;52.632;20.656;2023-08-17T10:01:52;12.60;;;6.20;;
75851;SDS011;64500;52.632;20.656;2023-08-17T10:04:24;11.00;;;5.80;;
75851;SDS011;64500;52.632;20.656;2023-08-17T10:07:06;10.80;;;6.10;;
75851;SDS011;64500;52.632;20.656;2023-08-17T10:09:55;11.70;;;5.60;;
75851;SDS011;64500;52.632;20.656;2023-08-17T10:12:27;11.60;;;5.60;;
75851;SDS011;64500;52.632;20.656;2023-08-17T10:14:55;7.80;;;5.00;;
75851;SDS011;64500;52.632;20.656;2023-08-17T10:17:55;10.90;;;5.00;;
75851;SDS011;64500;52.632;20.656;2023-08-17T10:20:37;9.90;;;4.50;;
75851;SDS011;64500;52.632;20.656;2023-08-17T10:23:17;10.00;;;4.80;;
75851;SDS011;64500;52.632;20.656;2023-08-17T10:26:00;10.50;;;5.30;;
75851;SDS011;64500;52.632;20.656;2023-08-17T10:28:33;11.30;;;5.30;;
75851;SDS011;64500;52.632;20.656;2023-08-17T10:31:06;10.20;;;5.20;;
75851;SDS011;64500;52.632;20.656;2023-08-17T10:36:32;8.80;;;4.90;;
75851;SDS011;64500;52.632;20.656;2023-08-17T10:39:17;8.70;;;5.00;;
75851;SDS011;64500;52.632;20.656;2023-08-17T10:42:11;8.70;;;4.90;;
75851;SDS011;64500;52.632;20.656;2023-08-17T10:49:50;10.80;;;5.60;;
75851;SDS011;64500;52.632;20.656;2023-08-17T10:52:29;9.10;;;4.90;;
75851;SDS011;64500;52.632;20.656;2023-08-17T10:54:59;9.00;;;5.20;;
75851;SDS011;64500;52.632;20.656;2023-08-17T10:57:36;9.00;;;5.30;;
75851;SDS011;64500;52.632;20.656;2023-08-17T11:00:15;10.20;;;5.90;;
75851;SDS011;64500;52.632;20.656;2023-08-17T11:05:45;9.20;;;5.10;;
75851;SDS011;64500;52.632;20.656;2023-08-17T11:08:29;8.90;;;5.00;;
75851;SDS011;64500;52.632;20.656;2023-08-17T11:13:38;12.30;;;5.40;;
75851;SDS011;64500;52.632;20.656;2023-08-17T11:16:06;12.80;;;5.20;;
75851;SDS011;64500;52.632;20.656;2023-08-17T11:18:37;14.50;;;5.70;;
75851;SDS011;64500;52.632;20.656;2023-08-17T11:21:10;9.50;;;5.00;;
75851;SDS011;64500;52.632;20.656;2023-08-17T11:23:41;9.50;;;5.50;;
75851;SDS011;64500;52.632;20.656;2023-08-17T11:26:12;12.40;;;5.60;;
75851;SDS011;64500;52.632;20.656;2023-08-17T11:31:13;8.60;;;5.50;;
75851;SDS011;64500;52.632;20.656;2023-08-17T11:33:43;11.50;;;5.50;;
75851;SDS011;64500;52.632;20.656;2023-08-17T11:36:22;10.10;;;5.30;;
75851;SDS011;64500;52.632;20.656;2023-08-17T11:38:49;10.60;;;5.50;;
75851;SDS011;64500;52.632;20.656;2023-08-17T11:41:20;10.70;;;5.50;;
75851;SDS011;64500;52.632;20.656;2023-08-17T11:43:47;11.50;;;5.00;;
75851;SDS011;64500;52.632;20.656;2023-08-17T11:46:19;8.70;;;5.40;;
75851;SDS011;64500;52.632;20.656;2023-08-17T11:48:49;8.60;;;5.10;;
75851;SDS011;64500;52.632;20.656;2023-08-17T11:51:30;9.80;;;4.70;;
75851;SDS011;64500;52.632;20.656;2023-08-17T11:54:25;10.50;;;5.30;;
75851;SDS011;64500;52.632;20.656;2023-08-17T11:56:51;9.80;;;5.10;;
75851;SDS011;64500;52.632;20.656;2023-08-17T11:59:26;7.70;;;4.90;;
75851;SDS011;64500;52.632;20.656;2023-08-17T12:02:03;10.10;;;5.10;;
75851;SDS011;64500;52.632;20.656;2023-08-17T12:04:31;8.80;;;4.60;;
75851;SDS011;64500;52.632;20.656;2023-08-17T12:09:31;9.50;;;4.60;;
75851;SDS011;64500;52.632;20.656;2023-08-17T12:12:03;12.10;;;4.60;;
75851;SDS011;64500;52.632;20.656;2023-08-17T12:14:43;9.50;;;4.90;;
75851;SDS011;64500;52.632;20.656;2023-08-17T12:17:16;8.70;;;4.20;;
75851;SDS011;64500;52.632;20.656;2023-08-17T12:19:48;9.00;;;3.50;;
75851;SDS011;64500;52.632;20.656;2023-08-17T12:22:16;7.90;;;3.40;;
75851;SDS011;64500;52.632;20.656;2023-08-17T12:24:49;8.10;;;3.80;;
75851;SDS011;64500;52.632;20.656;2023-08-17T12:27:26;8.90;;;3.40;;
75851;SDS011;64500;52.632;20.656;2023-08-17T12:30:00;7.40;;;3.30;;
75851;SDS011;64500;52.632;20.656;2023-08-17T12:32:33;8.10;;;3.40;;
75851;SDS011;64500;52.632;20.656;2023-08-17T12:35:07;10.90;;;3.60;;
75851;SDS011;64500;52.632;20.656;2023-08-17T12:37:37;9.30;;;3.90;;
75851;SDS011;64500;52.632;20.656;2023-08-17T12:40:04;7.10;;;3.10;;
75851;SDS011;64500;52.632;20.656;2023-08-17T12:43:02;7.60;;;3.30;;
75851;SDS011;64500;52.632;20.656;2023-08-17T12:45:30;7.70;;;3.20;;
75851;SDS011;64500;52.632;20.656;2023-08-17T12:48:08;8.00;;;3.60;;
75851;SDS011;64500;52.632;20.656;2023-08-17T12:50:48;6.60;;;3.50;;
75851;SDS011;64500;52.632;20.656;2023-08-17T12:53:18;7.20;;;3.60;;
75851;SDS011;64500;52.632;20.656;2023-08-17T12:55:51;9.50;;;4.00;;
75851;SDS011;64500;52.632;20.656;2023-08-17T12:58:18;8.30;;;3.60;;
75851;SDS011;64500;52.632;20.656;2023-08-17T13:00:45;8.00;;;3.40;;
75851;SDS011;64500;52.632;20.656;2023-08-17T13:03:19;10.40;;;3.30;;
75851;SDS011;64500;52.632;20.656;2023-08-17T13:05:47;8.70;;;3.30;;
75851;SDS011;64500;52.632;20.656;2023-08-17T13:08:17;8.10;;;3.60;;
75851;SDS011;64500;52.632;20.656;2023-08-17T13:10:56;9.30;;;3.40;;
75851;SDS011;64500;52.632;20.656;2023-08-17T13:13:25;9.40;;;4.30;;
75851;SDS011;64500;52.632;20.656;2023-08-17T13:15:55;8.90;;;5.00;;
75851;SDS011;64500;52.632;20.656;2023-08-17T13:18:28;8.60;;;5.10;;
75851;SDS011;64500;52.632;20.656;2023-08-17T13:21:05;11.70;;;5.00;;
75851;SDS011;64500;52.632;20.656;2023-08-17T13:23:38;10.40;;;5.30;;
75851;SDS011;64500;52.632;20.656;2023-08-17T13:28:43;10.70;;;4.90;;
75851;SDS011;64500;52.632;20.656;2023-08-17T13:31:19;8.50;;;4.90;;
75851;SDS011;64500;52.632;20.656;2023-08-17T13:33:47;8.60;;;4.80;;
75851;SDS011;64500;52.632;20.656;2023-08-17T13:36:16;8.60;;;5.00;;
75851;SDS011;64500;52.632;20.656;2023-08-17T13:38:50;9.20;;;5.20;;
75851;SDS011;64500;52.632;20.656;2023-08-17T13:41:17;9.50;;;5.20;;
75851;SDS011;64500;52.632;20.656;2023-08-17T13:43:45;9.50;;;5.20;;
75851;SDS011;64500;52.632;20.656;2023-08-17T13:46:19;12.30;;;5.60;;
75851;SDS011;64500;52.632;20.656;2023-08-17T13:49:00;11.70;;;5.50;;
75851;SDS011;64500;52.632;20.656;2023-08-17T13:51:27;9.30;;;5.60;;
75851;SDS011;64500;52.632;20.656;2023-08-17T13:53:57;9.50;;;5.20;;
75851;SDS011;64500;52.632;20.656;2023-08-17T13:56:35;11.70;;;5.60;;
75851;SDS011;64500;52.632;20.656;2023-08-17T13:59:05;9.70;;;4.40;;
75851;SDS011;64500;52.632;20.656;2023-08-17T14:01:38;8.60;;;3.50;;
75851;SDS011;64500;52.632;20.656;2023-08-17T14:04:10;10.10;;;3.30;;
75851;SDS011;64500;52.632;20.656;2023-08-17T14:06:40;9.40;;;3.50;;
75851;SDS011;64500;52.632;20.656;2023-08-17T14:09:08;8.00;;;3.00;;
75851;SDS011;64500;52.632;20.656;2023-08-17T14:11:59;9.30;;;3.00;;
75851;SDS011;64500;52.632;20.656;2023-08-17T14:14:33;6.80;;;3.10;;
75851;SDS011;64500;52.632;20.656;2023-08-17T14:17:01;6.70;;;3.00;;
75851;SDS011;64500;52.632;20.656;2023-08-17T14:19:36;7.30;;;3.20;;
75851;SDS011;64500;52.632;20.656;2023-08-17T14:22:06;8.10;;;3.20;;
75851;SDS011;64500;52.632;20.656;2023-08-17T14:24:33;13.40;;;3.80;;
75851;SDS011;64500;52.632;20.656;2023-08-17T14:27:08;10.40;;;3.00;;
75851;SDS011;64500;52.632;20.656;2023-08-17T14:29:42;15.20;;;3.40;;
75851;SDS011;64500;52.632;20.656;2023-08-17T14:32:12;7.40;;;3.50;;
75851;SDS011;64500;52.632;20.656;2023-08-17T14:34:42;10.80;;;3.90;;
75851;SDS011;64500;52.632;20.656;2023-08-17T14:37:12;9.70;;;3.90;;
75851;SDS011;64500;52.632;20.656;2023-08-17T14:39:44;7.20;;;3.60;;
75851;SDS011;64500;52.632;20.656;2023-08-17T14:42:17;9.90;;;4.00;;
75851;SDS011;64500;52.632;20.656;2023-08-17T14:44:59;9.70;;;4.00;;
75851;SDS011;64500;52.632;20.656;2023-08-17T14:47:26;10.40;;;3.80;;
75851;SDS011;64500;52.632;20.656;2023-08-17T14:50:05;9.80;;;3.70;;
75851;SDS011;64500;52.632;20.656;2023-08-17T14:52:36;10.80;;;4.00;;
75851;SDS011;64500;52.632;20.656;2023-08-17T14:58:11;8.90;;;4.00;;
75851;SDS011;64500;52.632;20.656;2023-08-17T15:00:45;10.10;;;3.80;;
75851;SDS011;64500;52.632;20.656;2023-08-17T15:03:12;8.70;;;3.80;;
75851;SDS011;64500;52.632;20.656;2023-08-17T15:05:39;9.00;;;4.10;;
75851;SDS011;64500;52.632;20.656;2023-08-17T15:08:14;8.10;;;3.90;;
75851;SDS011;64500;52.632;20.656;2023-08-17T15:10:43;7.80;;;3.60;;
75851;SDS011;64500;52.632;20.656;2023-08-17T15:13:17;10.10;;;4.70;;
75851;SDS011;64500;52.632;20.656;2023-08-17T15:15:55;9.80;;;4.30;;
75851;SDS011;64500;52.632;20.656;2023-08-17T15:18:28;13.70;;;5.00;;
75851;SDS011;64500;52.632;20.656;2023-08-17T15:21:16;12.10;;;5.40;;
75851;SDS011;64500;52.632;20.656;2023-08-17T15:23:48;11.50;;;4.90;;
75851;SDS011;64500;52.632;20.656;2023-08-17T15:26:57;9.40;;;4.90;;
75851;SDS011;64500;52.632;20.656;2023-08-17T15:29:55;9.80;;;4.00;;
75851;SDS011;64500;52.632;20.656;2023-08-17T15:32:38;18.40;;;3.50;;
75851;SDS011;64500;52.632;20.656;2023-08-17T15:35:34;10.00;;;3.60;;
75851;SDS011;64500;52.632;20.656;2023-08-17T15:38:03;10.50;;;3.80;;
75851;SDS011;64500;52.632;20.656;2023-08-17T15:40:34;8.10;;;3.50;;
75851;SDS011;64500;52.632;20.656;2023-08-17T15:43:14;8.20;;;4.00;;
75851;SDS011;64500;52.632;20.656;2023-08-17T15:45:44;11.50;;;3.90;;
75851;SDS011;64500;52.632;20.656;2023-08-17T15:48:20;7.10;;;3.50;;
75851;SDS011;64500;52.632;20.656;2023-08-17T15:51:19;9.50;;;3.80;;
75851;SDS011;64500;52.632;20.656;2023-08-17T15:53:56;8.10;;;3.20;;
75851;SDS011;64500;52.632;20.656;2023-08-17T15:56:32;8.40;;;3.50;;
75851;SDS011;64500;52.632;20.656;2023-08-17T15:59:16;8.10;;;3.20;;
75851;SDS011;64500;52.632;20.656;2023-08-17T16:01:57;6.80;;;3.20;;
75851;SDS011;64500;52.632;20.656;2023-08-17T16:04:38;7.00;;;3.40;;
75851;SDS011;64500;52.632;20.656;2023-08-17T16:07:20;8.10;;;3.20;;
75851;SDS011;64500;52.632;20.656;2023-08-17T16:10:04;8.00;;;3.70;;
75851;SDS011;64500;52.632;20.656;2023-08-17T16:12:41;7.90;;;3.50;;
75851;SDS011;64500;52.632;20.656;2023-08-17T16:15:29;7.80;;;3.70;;
75851;SDS011;64500;52.632;20.656;2023-08-17T16:18:17;6.70;;;3.70;;
75851;SDS011;64500;52.632;20.656;2023-08-17T16:20:50;9.30;;;3.70;;
75851;SDS011;64500;52.632;20.656;2023-08-17T16:23:32;8.00;;;3.90;;
75851;SDS011;64500;52.632;20.656;2023-08-17T16:26:22;7.90;;;3.60;;
75851;SDS011;64500;52.632;20.656;2023-08-17T16:29:25;7.70;;;3.80;;
75851;SDS011;64500;52.632;20.656;2023-08-17T16:32:16;7.00;;;3.60;;
75851;SDS011;64500;52.632;20.656;2023-08-17T16:35:14;8.80;;;4.10;;
75851;SDS011;64500;52.632;20.656;2023-08-17T16:41:01;8.60;;;3.80;;
75851;SDS011;64500;52.632;20.656;2023-08-17T16:43:57;10.10;;;3.80;;
75851;SDS011;64500;52.632;20.656;2023-08-17T16:49:54;8.30;;;4.10;;
75851;SDS011;64500;52.632;20.656;2023-08-17T16:52:37;9.70;;;4.20;;
75851;SDS011;64500;52.632;20.656;2023-08-17T16:55:28;9.20;;;4.30;;
75851;SDS011;64500;52.632;20.656;2023-08-17T16:58:27;9.00;;;4.10;;
75851;SDS011;64500;52.632;20.656;2023-08-17T17:00:57;9.60;;;4.20;;
75851;SDS011;64500;52.632;20.656;2023-08-17T17:03:59;8.40;;;3.90;;
75851;SDS011;64500;52.632;20.656;2023-08-17T17:09:45;9.60;;;4.40;;
75851;SDS011;64500;52.632;20.656;2023-08-17T17:12:16;8.00;;;4.10;;
75851;SDS011;64500;52.632;20.656;2023-08-17T17:14:47;8.80;;;3.90;;
75851;SDS011;64500;52.632;20.656;2023-08-17T17:20:17;7.50;;;4.00;;
75851;SDS011;64500;52.632;20.656;2023-08-17T17:23:07;8.90;;;3.80;;
75851;SDS011;64500;52.632;20.656;2023-08-17T17:25:54;8.00;;;3.80;;
75851;SDS011;64500;52.632;20.656;2023-08-17T17:28:38;7.90;;;4.40;;
75851;SDS011;64500;52.632;20.656;2023-08-17T17:31:37;8.40;;;4.40;;
75851;SDS011;64500;52.632;20.656;2023-08-17T17:34:18;10.00;;;4.00;;
75851;SDS011;64500;52.632;20.656;2023-08-17T17:37:08;9.80;;;5.70;;
75851;SDS011;64500;52.632;20.656;2023-08-17T17:40:36;10.00;;;5.60;;
75851;SDS011;64500;52.632;20.656;2023-08-17T17:49:05;11.20;;;5.30;;
75851;SDS011;64500;52.632;20.656;2023-08-17T17:54:20;13.60;;;6.10;;
75851;SDS011;64500;52.632;20.656;2023-08-17T17:57:17;10.10;;;5.90;;
75851;SDS011;64500;52.632;20.656;2023-08-17T18:00:06;9.60;;;5.00;;
75851;SDS011;64500;52.632;20.656;2023-08-17T18:02:48;9.10;;;4.60;;
75851;SDS011;64500;52.632;20.656;2023-08-17T18:08:45;8.50;;;5.10;;
75851;SDS011;64500;52.632;20.656;2023-08-17T18:11:36;9.20;;;4.40;;
75851;SDS011;64500;52.632;20.656;2023-08-17T18:14:36;9.90;;;4.70;;
75851;SDS011;64500;52.632;20.656;2023-08-17T18:17:23;9.40;;;4.80;;
75851;SDS011;64500;52.632;20.656;2023-08-17T18:19:59;10.90;;;5.00;;